X  Schlie├čen METAR Luftfahrt Wetterdaten     EHRD Rotterdam The Hague Airport
Temperatur
18°C Temperatur
12°C Taupunkt
68% Feuchtigkeit



Wind
3 KM/S
2 MPS
1 M/S
2 KTS



Kein Wind
Nord
Aktuelle Wetterlage

Klar Klar
Luftdruck 1024.92 (hPa) - 30.27 (inHg)
Sichtweite 6.2 (Meile) - 10 (Km)
Flughafen
Flughafen Code EHRD

Position : Rotterdam The Hague Airport
Entfernung: 16 (Km)

Metar:
EHRD 132025Z AUTO VRB02KT 9999 NCD 18/12 Q1025 NOSIG

Zeit: 13-06-2021 22:25 CEST